Latest Observation

67 Stations

10 Minute Data
as of 5/7/26 8:43 AM PDT
Station Date Time Temp (°F) RH (%) Dew Pt (°F) Wind Spd (mph) Wind Dir (°) Wind Gust (mph) Wind Gst Dir (°) Latest Rain (In) Soil Moist (%) Soil Temp (°F) Daily Rain (In) Daily Min Temp (°F) Daily Max Temp (°F) Daily Max Wind (mph)
Hobart Mills 5/7/26 0840 49.8   4.4 75   13 42.3   0.0 3.0   1.8 NE | 45 4.8   1.1 NE | 48 0.00 - 32.0   0.0 0.03 37.8   7.6 69.6   23.7 8.2   2.2
Prosser Dam 5/7/26 0840 44.1   3.8 98   1 43.5   3.6 0.1   1.0 S | 182 2.0   1.2 SSW | 200 0.00 24.3   0.9 50.3   2.0 0.00 36.9   0.8 44.7   2.9 4.1   0.0
West Incline Village 5/7/26 0840 50.0   5.1 76   15 42.7   0.2 0.1   1.1 SSE | 153 1.6   1.6 SSE | 147 0.00 33.8   0.9 45.5   1.4 0.00 44.8   3.1 51.8   4.7 4.1   0.0
Incline Village (Fairview Blvd) 5/7/26 0840 47.7   3.7 86   4 43.6   2.3 0.0   0.0 N | 0 0.0   0.4 ENE | 70 0.00 26.7   0.7 50.8   1.4 0.00 45.7   4.5 52.5   5.9 0.0   0.4
Incline Village (Diamond Peak) 5/7/26 0840 47.5   2.2 83   1 42.7   1.8 0.6   0.6 WNW | 302 2.6   2.6 NNW | 332 0.00 9.8   0.3 46.3   3.2 0.00 46.0   3.3 51.6   6.0 2.6   1.1
Incline Village (Mill Creek) 5/7/26 0840 48.8   4.3 83   6 43.7   2.4 0.0   0.0 N | 0 0.0   0.0 SE | 143 0.00 11.3   0.1 46.0   0.9 0.00 45.0   4.6 49.1   4.2 0.0   3.4
Incline Village (Lakeshore Blvd) 5/7/26 0840 49.7   4.2 89   6 46.6   2.4 1.0   0.5 S | 178 2.5   1.2 S | 185 0.00 34.3   0.6 50.6   2.4 0.00 40.2   3.8 50.8   4.9 4.6   0.9
Glenbrook 5/7/26 0840 49.1   2.6 87   2 45.4   1.9 2.5   0.5 WSW | 240 3.8   0.2 SW | 236 0.00 44.3   0.0 45.2   0.7 0.00 41.6   3.2 49.6   2.8 3.8   0.2
Zephyr Cove 5/7/26 0840 50.6   3.1 81   2 44.9   2.5 0.1   0.1 NNW | 345 2.0   2.0 N | 0 0.00 - 34.3   0.0 0.00 43.7   2.1 51.2   3.5 2.0   1.1
Kingsbury Grade 5/7/26 0840 53.3   5.1 67   9 42.6   1.5 0.7   1.3 WSW | 250 3.6   0.7 SW | 221 0.00 6.3   0.7 50.7   3.0 0.00 41.3   3.2 53.7   4.8 3.6   0.7
South Daggett Pass (Ridge) 5/7/26 0840 49.6   3.3 72   10 41.1   0.0 2.0   0.6 WNW | 286 9.4   3.7 W | 273 0.00 6.8   0.1 47.9   2.1 0.00 45.2   3.8 51.3   4.7 9.9   1.2
Palomino Valley 5/7/26 0840 62.6   0.8 52   6 44.9   4.1 0.7   0.4 N | 352 3.1   0.1 NW | 323 0.00 6.9   0.1 64.9   2.5 0.00 45.8   0.0 63.5   1.3 7.0   0.7
East Cold Springs 5/7/26 0840 59.4   4.6 57   8 44.0   0.8 8.2   0.2 WSW | 254 11.3   0.5 WSW | 244 0.00 1.8   0.1 56.9   1.6 0.00 49.8   2.4 60.0   2.4 13.0   7.3
Peavine 5/7/26 0840 58.7   2.9 54   1 42.1   3.2 3.1   2.8 NE | 35 5.7   5.2 N | 354 0.00 - 53.4   0.0 0.00 52.2   2.7 61.6   4.7 11.7   2.7
West Verdi Peak 5/7/26 0840 57.2   3.8 49   11 38.3   1.9 2.8   1.5 SW | 230 7.3   3.1 WSW | 245 0.00 21.8   0.7 53.0   2.1 0.00 47.6   4.6 58.4   4.6 9.7   2.1
West Verdi 5/7/26 0840 59.9   3.7 58   7 45.2   0.3 2.9   1.0 NE | 53 9.4   5.5 E | 92 0.00 8.2   0.1 61.4   3.0 0.00 49.8   4.4 61.3   5.0 9.4   0.9
South Verdi 5/7/26 0840 61.1   2.3 43   3 38.7   0.6 16.4   12.5 WSW | 248 22.2   14.0 WSW | 248 0.00 16.7   0.1 58.5   4.2 0.00 50.0   3.4 61.8   2.6 22.5   0.6
Northwest Reno 5/7/26 0840 62.7   5.0 51   8 44.2   1.0 3.6   1.6 ESE | 102 6.6   2.5 ESE | 103 0.00 23.8   0.2 62.7   3.2 0.00 54.6   1.4 64.2   2.8 18.4   0.5
North Lawton 5/7/26 0840 60.5   3.1 52   4 42.8   1.1 4.6   0.7 SW | 231 7.2   0.6 SSW | 208 0.00 - 39.1   0.0 0.00 52.7   4.0 61.6   3.4 16.0   0.9
West Reno (Mogul) 5/7/26 0840 61.1   0.7 53   2 43.8   1.9 1.7   1.0 ESE | 112 4.5   0.2 E | 101 0.00 37.9   0.4 61.3   1.4 0.00 50.9   1.4 61.5   0.1 10.7   4.1
Caughlin (Hunter Lake Trail) 9/16/25 0800 59.7   3.5 41   11 35.9   2.7 0.0   0.0 N | 0 0.0   0.0 ENE | 66 0.00 15.7   0.0 69.8   0.5 0.00 55.7   3.2 67.7   9.1 9.4   0.9
ArrowCreek 5/7/26 0840 59.7   1.5 58   0 45.0   1.3 4.1   2.0 NNE | 25 6.1   0.7 NNE | 33 0.00 - 32.0   0.0 0.00 51.6   2.5 61.3   2.9 10.9   2.2
Tracy 5/7/26 0840 65.0   3.1 47   2 44.4   2.0 5.7   4.6 SW | 232 8.2   6.5 SW | 232 0.00 8.0   0.1 64.6   3.3 0.00 55.6   1.6 66.2   3.9 13.0   3.2
Virginia Highlands 5/7/26 0840 61.5   6.4 52   5 43.6   3.7 3.3   3.3 NE | 45 6.3   6.3 NE | 40 0.00 8.5   0.3 56.8   1.4 0.00 53.3   2.2 62.3   6.9 6.3   7.1
Virginia City 5/7/26 0840 58.4   3.5 49   3 39.5   1.7 4.5   5.9 SSE | 148 7.7   15.0 SE | 140 0.00 8.3   0.1 55.0   2.8 0.00 54.3   4.8 60.3   4.2 9.2   15.0
Six Mile Canyon 9/9/25 0630 60.2   9.6 37   6 33.7   4.8 4.1   2.5 W | 277 6.1   2.9 WNW | 286 0.00 12.5   0.0 75.5   0.7 0.00 57.9   7.6 64.4   1.9 7.0   3.9
Mt Rose Highway 4/30/26 0510 40.8   4.7 47   13 22.3   1.3 2.3   0.2 WSW | 243 4.8   2.1 WSW | 246 0.00 24.1   0.3 43.0   0.8 0.00 40.5   4.7 43.0   5.3 7.7   0.4
Pleasant Valley 5/7/26 0840 60.8   2.3 53   4 43.8   0.2 4.0   0.3 SW | 218 7.5   0.7 SW | 231 0.00 2.8   0.0 61.5   3.1 0.00 47.8   2.6 61.4   2.2 7.7   0.5
New Washoe City 5/7/26 0840 59.4   2.7 53   10 42.1   1.9 0.6   0.2 SW | 221 4.7   0.7 SW | 214 0.00 4.5   0.0 60.3   2.7 0.00 47.3   2.0 59.6   2.7 9.3   1.2
Franktown Creek 5/7/26 0840 59.2   1.8 56   11 43.3   3.0 1.1   0.5 E | 84 3.1   0.4 ESE | 105 0.00 11.2   0.1 56.0   1.9 0.00 46.5   2.5 59.8   2.1 4.6   0.2
Musgrove Creek 5/7/26 0840 61.2   4.1 53   1 43.8   3.0 2.6   0.2 NE | 39 5.1   0.0 NNE | 18 0.00 45.0   0.0 53.1   0.9 0.00 54.1   4.7 62.2   4.5 10.2   5.1
East Carson 11/23/24 0110 28.6   28.4 - - 4.7   11.0 SW | 220 14.7   10.1 SW | 219 0.02 - 50.9   0.1 0.02 -25.9   79.1 42.9   14.6 16.0   10.7
Kings Canyon 5/7/26 0840 57.6   2.7 55   14 41.4   3.2 1.2   0.6 NNE | 23 3.4   0.7 NNE | 23 0.00 15.1   0.2 57.2   1.9 0.00 47.6   4.4 58.2   2.5 6.7   0.4
Carson City (Voltaire Canyon) 5/7/26 0840 59.2   6.1 43   22 36.6   5.2 13.8   4.5 S | 187 19.9   7.8 S | 187 0.00 2.8   0.1 60.6   1.1 0.00 54.2   4.4 61.3   6.2 19.9   4.0
Jacks Valley 5/7/26 0840 57.6   4.5 50   16 39.3   2.9 2.8   1.8 NE | 52 5.2   1.7 E | 92 0.00 13.8   0.0 60.2   4.3 0.00 49.2   4.7 57.8   4.2 5.6   0.5
Genoa 5/7/26 0840 57.6   4.0 59   13 43.4   1.4 0.6   0.2 NNW | 344 3.5   1.1 N | 1 0.00 8.8   1.3 54.3   3.6 0.00 47.8   2.0 58.2   3.9 4.1   0.5
South Genoa (Walleys Hot Springs) 5/7/26 0840 56.4   3.2 60   10 42.6   1.0 4.5   2.8 N | 351 6.3   1.6 N | 3 0.00 13.9   0.0 62.0   2.4 0.00 44.3   1.5 57.2   3.5 9.9   2.9
SW Gardnerville (HWY 88) 5/7/26 0840 55.6   3.2 59   12 41.6   1.7 1.4   0.1 NNW | 341 3.5   0.6 NNW | 337 0.00 3.5   0.1 57.7   3.3 0.00 41.2   0.4 56.0   3.0 7.3   2.9
Sheridan 5/7/26 0840 54.8   2.5 64   9 42.7   1.1 2.8   0.2 N | 9 5.1   0.0 NNE | 16 0.00 5.4   0.7 59.1   2.9 0.00 44.6   0.7 55.8   3.2 6.8   0.0
Ruhenstroth 5/7/26 0840 60.0   4.5 44   15 37.8   3.3 2.3   1.2 NW | 307 5.0   2.4 NW | 315 0.00 12.6   0.0 57.9   3.0 0.00 44.9   2.4 60.5   4.8 9.3   3.0
Double Spring 5/7/26 0840 61.0   5.9 42   16 37.9   2.6 2.0   4.9 NNE | 14 5.0   5.6 NNW | 341 0.00 30.9   0.5 54.4   2.8 0.00 37.9   0.5 61.8   6.2 5.0   5.6
North Topaz Lake 5/7/26 0840 60.4   6.5 41   21 36.6   4.5 2.0   0.3 NE | 53 3.7   1.1 NE | 54 0.00 9.3   0.2 56.6   3.7 0.00 54.5   7.2 60.9   6.5 7.0   3.0
Wild Oat Mountain 5/7/26 0840 60.0   6.2 42   20 36.6   4.2 0.8   3.0 NNW | 342 3.7   4.5 NW | 317 0.00 16.8   0.2 58.2   2.6 0.00 53.7   6.7 60.6   6.6 7.9   2.4
Smith Valley 5/7/26 0840 56.8   4.5 55   21 40.8   4.0 6.2   4.0 N | 3 8.9   4.0 NNW | 348 0.00 5.8   0.0 60.8   2.3 0.00 49.3   5.4 57.8   5.2 9.6   2.7
Pine Grove Mountain 5/7/26 0840 54.3   8.6 34   25 26.7   5.8 1.9   3.4 SW | 226 4.6   5.1 SSW | 208 0.00 22.4   1.0 48.2   4.2 0.00 51.4   7.3 54.7   8.0 8.6   5.6
Paradise Hill 5/7/26 0840 62.6   2.4 31   8 31.9   3.3 3.8   1.4 SSW | 192 6.8   1.0 S | 189 0.00 8.0   0.1 60.7   1.4 0.00 45.6   0.7 63.2   2.5 11.0   0.1
Winnemucca 5/7/26 0840 64.0   7.2 33   18 34.8   4.4 9.0   7.5 SW | 223 12.3   6.8 SW | 225 0.00 5.9   0.0 60.0   2.4 0.00 53.1   9.2 64.4   6.7 13.9   5.6
NE Elko 5/7/26 0840 64.6   15.6 27   39 30.1   8.3 12.4   9.2 SW | 231 17.1   10.2 WSW | 245 0.00 12.3   0.0 56.8   3.2 0.00 37.9   5.2 65.0   15.4 18.8   4.2
North Elko 5/7/26 0840 58.3   9.4 40   22 34.3   2.5 8.9   4.8 SSE | 158 12.8   6.2 SSE | 167 0.00 28.3   0.0 55.1   2.6 0.00 49.1   9.7 59.4   7.6 12.8   1.0
South Elko 5/7/26 0840 88.7   28.3 53   27 69.2   14.9 3.5   0.4 SSW | 198 9.7   3.9 WSW | 247 0.00 18.4   0.1 54.9   3.7 0.00 55.3   10.5 - 10.8   2.5
Lamoille 1/28/26 1720 33.2   0.5 65   17 22.8   6.3 5.8   1.5 SSE | 166 7.7   1.9 SE | 139 0.00 12.2   0.0 33.4   0.1 0.02 23.5   2.0 36.5   5.9 25.6   17.4
Reid Gardner Sub 5/6/26 1130 73.4   2.5 26   2 36.5   0.4 2.6   2.7 SSW | 196 7.6   4.5 SW | 218 0.00 24.0   0.1 70.1   0.4 0.00 50.0   4.6 74.0   1.7 7.6   7.8
Corn Creek 5/7/26 0840 71.8   5.9 21   9 30.2   3.4 1.7   13.5 NNW | 332 4.7   16.9 NW | 321 0.00 3.9   0.0 72.5   2.5 0.00 62.1   3.1 72.2   5.9 8.8   12.8
Lucky Strike 5/7/26 0840 65.9   7.2 22   16 26.4   7.3 2.8   10.2 NNE | 18 6.6   15.0 N | 354 0.00 4.4   0.0 65.9   2.2 0.00 57.1   4.2 66.5   7.4 13.2   9.4
Lower Angel Peak 5/7/26 0840 60.9   6.7 30   16 29.2   4.9 3.0   2.4 NNW | 347 7.1   7.5 NNW | 337 0.00 10.2   0.2 55.1   1.9 0.00 46.0   3.9 61.4   6.4 9.2   8.5
Angel Peak 5/7/26 0840 51.1   9.2 36   29 25.1   5.8 1.8   3.2 NNW | 340 6.7   7.7 N | 4 0.00 3.5   0.1 49.0   3.8 0.00 46.4   9.8 51.6   9.4 11.7   19.5
Upper Kyle Canyon 5/7/26 0840 56.8   7.5 30   14 25.4   2.7 1.2   6.8 SSE | 151 4.3   15.7 ESE | 120 0.00 13.6   0.0 55.6   3.0 0.00 44.0   4.8 57.4   7.8 8.1   11.9
Mt Charleston 5/7/26 0840 57.7   6.3 32   9 28.2   0.5 1.8   1.4 ENE | 68 6.3   5.1 NNE | 18 0.00 18.2   0.0 48.9   0.7 0.00 46.2   7.6 58.2   5.8 7.9   6.8
Mid Kyle Canyon 5/7/26 0840 62.4   6.2 29   15 29.7   4.7 3.9   0.6 ESE | 105 8.3   3.2 ESE | 109 0.00 7.0   0.0 57.9   2.4 0.00 48.8   7.3 62.8   5.8 17.4   0.0
Blue Diamond 5/7/26 0940 73.8   7.5 17   14 25.6   8.4 2.7   3.0 SE | 125 6.5   5.0 ESE | 109 0.00 3.0   0.5 67.7   0.5 0.00 50.1   5.8 74.4   7.5 9.3   9.3
Artesian Sub 5/7/26 0840 76.4   6.8 20   10 32.1   4.3 2.0   1.3 ENE | 63 4.7   0.9 NNE | 20 0.00 13.2   0.1 74.6   0.4 0.00 66.4   2.8 77.0   6.8 6.7   2.7
North Henderson 5/7/26 0840 76.0   6.6 20   12 32.0   5.9 2.6   2.6 N | 354 5.2   2.4 N | 354 0.00 8.7   0.1 79.6   0.8 0.00 65.3   2.6 76.8   5.5 9.1   7.1
Sandy Valley 5/7/26 0840 73.0   11.8 27   18 37.0   2.8 0.0   2.1 SSE | 151 1.2   3.5 SSE | 148 0.00 4.4   0.0 75.7   2.9 0.00 59.3   5.8 73.6   11.7 8.9   2.6
Searchlight 5/7/26 0840 73.3   12.4 19   23 29.0   8.6 11.5   7.3 N | 4 17.1   10.1 N | 354 0.00 4.6   0.1 71.7   3.9 0.00 56.2   8.4 73.8   12.3 17.1   8.7
Laughlin 5/7/26 0910 79.3   9.1 24   13 39.2   3.2 5.6   1.6 NNE | 23 7.3   0.1 NNE | 31 0.00 4.1   0.1 83.2   1.4 0.00 68.9   6.5 80.9   10.2 9.3   1.5
31Mission Hills 5/7/26 0840 73.5   8.0 18   13 27.9   6.8 3.4   4.1 N | 4 6.6   3.7 N | 8 0.00 3.5   0.0 73.2   2.5 0.00 67.9   8.2 74.8   8.7 8.2   7.6
32 Enterprise Sierra Cliffs 5/7/26 0840 74.4   8.6 15   15 23.0   10.2 2.9   2.7 ENE | 77 6.3   2.0 ENE | 62 0.00 2.1   0.1 68.8   3.5 0.00 66.9   6.0 74.7   8.6 14.3   0.6
Max     88.7 98 69.2 16.4 - 22.2 - 0.00 45.0 83.2 0.03 68.9 80.9 22.5
Avg     60.4 49 38.6 3.4 - 6.5 - 0.00 13.2 57.1 - - - -
Min     44.1 15 23.0 0.0 - 0.0 - 0.00 1.8 32.0 0.00 36.9 44.7 0.0